Time;durP1;ratioP1;P1;durP2;ratioP2;P2;SDS_P1;SDS_P2;PMS_P1;PMS_P2;Temp;Humidity;BMP_temperature;BMP_pressure;BME280_temperature;BME280_humidity;BME280_pressure;Samples;Min_cycle;Max_cycle;Signal;HPM_P1;HPM_P2
2021/04/13 00:01:12;;;;;;;;;;;2.60;93.90;;;;;;5018346;28;19948;-86
2021/04/13 00:03:48;;;;;;;;;;;2.60;94.00;;;;;;5036934;28;20297;-86
2021/04/13 00:06:17;;;;;;;;;;;2.50;94.10;;;;;;5019156;28;19952;-86
2021/04/13 00:08:44;;;;;;;;;;;2.50;94.20;;;;;;5019018;28;19940;-85
2021/04/13 00:11:11;;;;;;;;;;;2.50;94.10;;;;;;5036105;28;19991;-86
2021/04/13 00:13:39;;;;;;;;;;;2.50;94.20;;;;;;5037031;28;19912;-86
2021/04/13 00:16:10;;;;;;;;;;;2.50;94.20;;;;;;5036620;28;19917;-85
2021/04/13 00:18:35;;;;;;;;;;;2.50;94.20;;;;;;5036564;28;19940;-86
2021/04/13 00:21:04;;;;;;;;;;;2.50;94.10;;;;;;5017978;28;20278;-86
2021/04/13 00:23:30;;;;;;;;;;;2.50;94.20;;;;;;5018461;28;19909;-86
2021/04/13 00:26:03;;;;;;;;;;;2.50;94.10;;;;;;5018612;28;19987;-86
2021/04/13 00:28:30;;;;;;;;;;;2.50;94.20;;;;;;5018430;28;19999;-85
2021/04/13 00:30:57;;;;;;;;;;;2.50;94.10;;;;;;5035562;28;19906;-85
2021/04/13 00:33:24;;;;;;;;;;;2.50;94.20;;;;;;5018386;28;20012;-86
2021/04/13 00:36:10;;;;;;;;;;;2.40;94.10;;;;;;5018549;28;20071;-85
2021/04/13 00:38:37;;;;;;;;;;;2.40;94.20;;;;;;5036102;28;19905;-86
2021/04/13 00:41:26;;;;;;;;;;;2.30;94.30;;;;;;5016999;28;20400;-86
2021/04/13 00:43:53;;;;;;;;;;;2.30;94.30;;;;;;5007603;28;19905;-86
2021/04/13 00:46:20;;;;;;;;;;;2.30;94.30;;;;;;5018266;28;19951;-86
2021/04/13 00:48:46;;;;;;;;;;;2.30;94.30;;;;;;5035935;28;19912;-86
2021/04/13 00:51:20;;;;;;;;;;;2.30;94.40;;;;;;5018196;28;19906;-86
2021/04/13 00:53:48;;;;;;;;;;;2.30;94.30;;;;;;5036421;28;20362;-86
2021/04/13 00:56:14;;;;;;;;;;;2.30;94.10;;;;;;5018745;28;19916;-85
2021/04/13 00:58:45;;;;;;;;;;;2.40;94.10;;;;;;5018624;28;20293;-85
2021/04/13 01:01:18;;;;;;;;;;;2.30;94.10;;;;;;5017872;28;19950;-86
2021/04/13 01:03:45;;;;;;;;;;;2.20;94.20;;;;;;5018307;28;19928;-85
2021/04/13 01:06:17;;;;;;;;;;;2.20;94.10;;;;;;5018334;28;19968;-85
2021/04/13 01:08:43;;;;;;;;;;;2.20;94.20;;;;;;5036697;28;19912;-86
2021/04/13 01:11:12;;;;;;;;;;;2.20;93.90;;;;;;5017461;28;19905;-85
2021/04/13 01:13:43;;;;;;;;;;;2.20;94.10;;;;;;5035647;28;19912;-86
2021/04/13 01:16:10;;;;;;;;;;;2.20;94.10;;;;;;5035591;28;20000;-86
2021/04/13 01:18:37;;;;;;;;;;;2.20;94.20;;;;;;5036044;28;20031;-86
2021/04/13 01:21:06;;;;;;;;;;;2.10;94.20;;;;;;5035330;28;19912;-87
2021/04/13 01:23:43;;;;;;;;;;;2.10;94.20;;;;;;5018627;28;19905;-86
2021/04/13 01:26:09;;;;;;;;;;;2.10;94.30;;;;;;5018433;28;20332;-86
2021/04/13 01:28:37;;;;;;;;;;;2.20;94.10;;;;;;5036284;28;19958;-85
2021/04/13 01:31:40;;;;;;;;;;;2.20;94.20;;;;;;5017478;28;19905;-85
2021/04/13 01:34:04;;;;;;;;;;;2.20;94.00;;;;;;5035703;28;19905;-86
2021/04/13 01:36:32;;;;;;;;;;;2.10;94.20;;;;;;5018166;28;20365;-86
2021/04/13 01:39:10;;;;;;;;;;;2.10;94.30;;;;;;5034990;28;19955;-86
2021/04/13 01:41:56;;;;;;;;;;;2.10;94.10;;;;;;5035366;28;20388;-86
2021/04/13 01:44:51;;;;;;;;;;;2.00;94.20;;;;;;5017820;28;20309;-86
2021/04/13 01:47:18;;;;;;;;;;;1.90;94.40;;;;;;5001167;28;19987;-87
2021/04/13 01:49:49;;;;;;;;;;;1.90;94.40;;;;;;5016939;28;19905;-86
2021/04/13 01:52:21;;;;;;;;;;;1.90;94.30;;;;;;5035429;28;19992;-87
2021/04/13 01:54:47;;;;;;;;;;;1.80;94.50;;;;;;5035230;28;20011;-86
2021/04/13 01:57:26;;;;;;;;;;;1.80;94.50;;;;;;5017660;28;19991;-86
2021/04/13 01:59:52;;;;;;;;;;;1.70;94.70;;;;;;5035028;28;19995;-86
2021/04/13 02:02:21;;;;;;;;;;;1.80;94.60;;;;;;5035023;28;20003;-87
2021/04/13 02:04:51;;;;;;;;;;;1.80;94.60;;;;;;5017330;28;19995;-85
2021/04/13 02:07:34;;;;;;;;;;;1.80;94.70;;;;;;5034500;28;19905;-86
2021/04/13 02:10:20;;;;;;;;;;;1.70;94.60;;;;;;5016385;28;20354;-86
2021/04/13 02:12:46;;;;;;;;;;;1.80;94.70;;;;;;5034189;28;19912;-86
2021/04/13 02:15:21;;;;;;;;;;;1.90;94.50;;;;;;5016315;28;19951;-86
2021/04/13 02:17:51;;;;;;;;;;;1.70;94.50;;;;;;5034283;28;20544;-86
2021/04/13 02:20:19;;;;;;;;;;;1.80;94.80;;;;;;5015897;28;19905;-86
2021/04/13 02:22:46;;;;;;;;;;;1.90;94.50;;;;;;5016435;28;20351;-86
2021/04/13 02:25:13;;;;;;;;;;;1.80;94.50;;;;;;5016309;28;20358;-86
2021/04/13 02:27:40;;;;;;;;;;;1.90;94.40;;;;;;5016657;28;19929;-86
2021/04/13 02:30:10;;;;;;;;;;;1.80;94.40;;;;;;5015639;28;19909;-86
2021/04/13 02:32:40;;;;;;;;;;;1.90;94.40;;;;;;5033894;28;19912;-86
2021/04/13 02:35:13;;;;;;;;;;;1.80;94.60;;;;;;5033116;28;19927;-86
2021/04/13 02:37:40;;;;;;;;;;;1.80;94.40;;;;;;5016200;28;19916;-85
2021/04/13 02:40:12;;;;;;;;;;;1.80;94.50;;;;;;5016100;28;19995;-86
2021/04/13 02:42:42;;;;;;;;;;;1.80;94.50;;;;;;5034110;28;19905;-86
2021/04/13 02:45:21;;;;;;;;;;;1.80;94.30;;;;;;5016631;28;20358;-86
2021/04/13 02:47:48;;;;;;;;;;;1.70;94.30;;;;;;5016918;28;19959;-85
2021/04/13 02:50:16;;;;;;;;;;;1.70;94.50;;;;;;5033516;28;19905;-87
2021/04/13 02:52:43;;;;;;;;;;;1.80;94.40;;;;;;5017328;28;19905;-87
2021/04/13 02:55:09;;;;;;;;;;;1.80;94.40;;;;;;5023065;28;19936;-85
2021/04/13 02:57:44;;;;;;;;;;;1.70;94.30;;;;;;5033047;28;20016;-85
2021/04/13 03:00:17;;;;;;;;;;;1.70;94.50;;;;;;5051037;28;19913;-85
2021/04/13 03:02:44;;;;;;;;;;;1.60;94.50;;;;;;5025785;28;19912;-86
2021/04/13 03:05:14;;;;;;;;;;;1.60;94.60;;;;;;5016654;28;19959;-86
2021/04/13 03:07:40;;;;;;;;;;;1.60;94.70;;;;;;5016390;28;19909;-87
2021/04/13 03:10:08;;;;;;;;;;;1.60;94.70;;;;;;5015287;28;20346;-86
2021/04/13 03:12:35;;;;;;;;;;;1.70;94.70;;;;;;5015361;28;19916;-86
2021/04/13 03:15:01;;;;;;;;;;;1.70;94.50;;;;;;5033439;28;19905;-85
2021/04/13 03:17:28;;;;;;;;;;;1.70;94.50;;;;;;5015502;28;19909;-86
2021/04/13 03:20:04;;;;;;;;;;;1.60;94.70;;;;;;5032596;28;19991;-85
2021/04/13 03:22:31;;;;;;;;;;;1.70;94.50;;;;;;5033014;28;19951;-86
2021/04/13 03:24:57;;;;;;;;;;;1.60;94.80;;;;;;5032957;28;20286;-86
2021/04/13 03:27:26;;;;;;;;;;;1.70;94.50;;;;;;5015200;28;19909;-86
2021/04/13 03:30:00;;;;;;;;;;;1.60;94.60;;;;;;5014546;28;19912;-85
2021/04/13 03:32:27;;;;;;;;;;;1.60;95.10;;;;;;5014886;28;19951;-84
2021/04/13 03:34:53;;;;;;;;;;;1.60;94.90;;;;;;5015315;28;19927;-86
2021/04/13 03:37:19;;;;;;;;;;;1.60;94.90;;;;;;5015292;28;19963;-86
2021/04/13 03:39:45;;;;;;;;;;;1.70;94.70;;;;;;5032276;28;19905;-86
2021/04/13 03:42:13;;;;;;;;;;;1.60;94.80;;;;;;5015184;28;19932;-86
2021/04/13 03:44:39;;;;;;;;;;;1.60;94.90;;;;;;5015120;28;20329;-86
2021/04/13 03:47:10;;;;;;;;;;;1.60;94.80;;;;;;5015114;28;19905;-86
2021/04/13 03:49:37;;;;;;;;;;;1.60;94.60;;;;;;5032274;28;19959;-85
2021/04/13 03:52:08;;;;;;;;;;;1.60;94.70;;;;;;5032619;28;19905;-86
2021/04/13 03:54:36;;;;;;;;;;;1.50;94.90;;;;;;5014863;28;19971;-85
2021/04/13 03:57:02;;;;;;;;;;;1.50;94.90;;;;;;5032747;28;19909;-86
2021/04/13 03:59:33;;;;;;;;;;;1.50;95.10;;;;;;5014628;28;19938;-86
2021/04/13 04:01:58;;;;;;;;;;;1.60;94.90;;;;;;5032844;28;19955;-86
2021/04/13 04:04:33;;;;;;;;;;;1.60;94.90;;;;;;5032857;28;19905;-85
2021/04/13 04:07:17;;;;;;;;;;;1.60;95.00;;;;;;5015288;28;20469;-86
2021/04/13 04:09:43;;;;;;;;;;;1.70;94.80;;;;;;5032364;28;19928;-86
2021/04/13 04:12:14;;;;;;;;;;;1.70;94.30;;;;;;5032963;28;20362;-84
2021/04/13 04:14:39;;;;;;;;;;;1.60;94.50;;;;;;5014903;28;20003;-86
2021/04/13 04:17:06;;;;;;;;;;;1.60;94.80;;;;;;5018346;28;20015;-86
2021/04/13 04:19:32;;;;;;;;;;;1.60;94.90;;;;;;5036264;28;19905;-87
2021/04/13 04:22:00;;;;;;;;;;;1.60;94.70;;;;;;5018738;28;19905;-86
2021/04/13 04:24:29;;;;;;;;;;;1.70;94.60;;;;;;5036500;28;20010;-86
2021/04/13 04:26:56;;;;;;;;;;;1.70;94.70;;;;;;5019000;28;19912;-86
2021/04/13 04:29:31;;;;;;;;;;;1.70;94.60;;;;;;5018301;28;19905;-86
2021/04/13 04:32:09;;;;;;;;;;;1.60;94.70;;;;;;5018680;28;19905;-86
2021/04/13 04:34:35;;;;;;;;;;;1.70;94.80;;;;;;5018476;28;19905;-85
2021/04/13 04:37:00;;;;;;;;;;;1.60;94.80;;;;;;5018244;28;19916;-86
2021/04/13 04:39:26;;;;;;;;;;;1.60;95.00;;;;;;5035255;28;20065;-86
2021/04/13 04:41:53;;;;;;;;;;;1.70;95.00;;;;;;5018244;28;20003;-85
2021/04/13 04:44:22;;;;;;;;;;;1.80;95.00;;;;;;5035685;28;20361;-86
2021/04/13 04:46:48;;;;;;;;;;;1.80;95.20;;;;;;5035429;28;20349;-86
2021/04/13 04:49:14;;;;;;;;;;;1.90;95.20;;;;;;5017376;28;19909;-85
2021/04/13 04:51:41;;;;;;;;;;;1.90;95.30;;;;;;5018094;28;19912;-87
2021/04/13 04:54:07;;;;;;;;;;;1.90;95.40;;;;;;5035813;28;19905;-87
2021/04/13 04:56:33;;;;;;;;;;;1.90;95.50;;;;;;5018516;28;20297;-86
2021/04/13 04:58:58;;;;;;;;;;;2.00;95.40;;;;;;5035416;28;19905;-86
2021/04/13 05:01:24;;;;;;;;;;;2.10;95.10;;;;;;5035699;28;19920;-86
2021/04/13 05:03:50;;;;;;;;;;;2.10;95.00;;;;;;5035819;28;19962;-86
2021/04/13 05:06:16;;;;;;;;;;;2.10;95.00;;;;;;5018021;28;19908;-85
2021/04/13 05:08:42;;;;;;;;;;;2.10;94.90;;;;;;5018648;28;19905;-86
2021/04/13 05:20:25;;;;;;;;;;;1.90;95.50;;;;;;5038965;28;20393;-86
2021/04/13 05:22:50;;;;;;;;;;;2.00;95.50;;;;;;5020379;28;19909;-86
2021/04/13 05:25:16;;;;;;;;;;;2.10;95.30;;;;;;5036809;28;19911;-85
2021/04/13 05:27:42;;;;;;;;;;;2.20;95.20;;;;;;5017857;28;19905;-86
2021/04/13 05:30:09;;;;;;;;;;;2.20;95.30;;;;;;5035309;28;19920;-87
2021/04/13 05:32:35;;;;;;;;;;;2.30;95.20;;;;;;5018109;28;19905;-85
2021/04/13 05:35:01;;;;;;;;;;;2.20;95.50;;;;;;5019346;28;20358;-85
2021/04/13 05:37:28;;;;;;;;;;;2.30;95.60;;;;;;5037595;28;19916;-84
2021/04/13 05:39:57;;;;;;;;;;;2.20;95.50;;;;;;5035544;28;19976;-86
2021/04/13 05:42:28;;;;;;;;;;;2.30;95.90;;;;;;5019796;28;19905;-85
2021/04/13 05:44:54;;;;;;;;;;;2.40;95.90;;;;;;5019933;28;19913;-86
2021/04/13 05:47:19;;;;;;;;;;;2.50;95.90;;;;;;5037706;28;19909;-86
2021/04/13 05:49:45;;;;;;;;;;;2.50;95.60;;;;;;5037020;28;19905;-85
2021/04/13 05:52:10;;;;;;;;;;;2.60;95.60;;;;;;5018685;28;20449;-84
2021/04/13 05:54:36;;;;;;;;;;;2.50;95.60;;;;;;5019031;28;19952;-86
2021/04/13 05:57:02;;;;;;;;;;;2.60;95.70;;;;;;5019978;28;19977;-86
2021/04/13 05:59:43;;;;;;;;;;;2.60;95.80;;;;;;5037172;28;19912;-86
2021/04/13 06:02:12;;;;;;;;;;;2.70;95.40;;;;;;5036348;28;20362;-86
2021/04/13 06:04:37;;;;;;;;;;;2.70;95.50;;;;;;5020767;28;19912;-86
2021/04/13 06:07:03;;;;;;;;;;;2.70;95.50;;;;;;5018392;28;19905;-85
2021/04/13 06:09:28;;;;;;;;;;;2.80;95.40;;;;;;5035635;28;19905;-86
2021/04/13 06:11:55;;;;;;;;;;;2.80;95.50;;;;;;5035825;28;20320;-86
2021/04/13 06:14:23;;;;;;;;;;;2.80;95.50;;;;;;5036504;28;20285;-86
2021/04/13 06:16:49;;;;;;;;;;;2.90;95.60;;;;;;5036132;28;19909;-87
2021/04/13 06:19:47;;;;;;;;;;;2.90;95.50;;;;;;5017298;28;19912;-86
2021/04/13 06:22:24;;;;;;;;;;;2.90;95.50;;;;;;5019553;28;19944;-87
2021/04/13 06:24:55;;;;;;;;;;;3.00;95.50;;;;;;5035414;28;19992;-86
2021/04/13 06:27:20;;;;;;;;;;;3.10;95.50;;;;;;5012676;28;19905;-86
2021/04/13 06:29:46;;;;;;;;;;;3.20;95.60;;;;;;5035111;28;19970;-86
2021/04/13 06:32:15;;;;;;;;;;;3.10;95.40;;;;;;5035066;28;19912;-85
2021/04/13 06:35:04;;;;;;;;;;;3.10;95.80;;;;;;5032073;28;19916;-86
2021/04/13 06:37:36;;;;;;;;;;;3.10;96.10;;;;;;5034047;28;19909;-86
2021/04/13 06:40:07;;;;;;;;;;;3.30;95.90;;;;;;5034556;28;19905;-86
2021/04/13 06:42:47;;;;;;;;;;;3.40;95.90;;;;;;5034009;28;19912;-84
2021/04/13 06:45:40;;;;;;;;;;;3.40;95.80;;;;;;5017355;28;19905;-86
2021/04/13 06:48:26;;;;;;;;;;;3.50;95.70;;;;;;5014897;28;19905;-87
2021/04/13 06:50:57;;;;;;;;;;;3.60;95.50;;;;;;5002886;28;19905;-87
2021/04/13 06:53:35;;;;;;;;;;;3.70;95.50;;;;;;5017676;28;20376;-87
2021/04/13 06:56:14;;;;;;;;;;;3.80;95.40;;;;;;5016572;28;19916;-86
2021/04/13 06:58:45;;;;;;;;;;;3.80;95.00;;;;;;5017790;28;19915;-86
2021/04/13 07:01:23;;;;;;;;;;;3.80;95.10;;;;;;5015692;28;21347;-87
2021/04/13 07:03:55;;;;;;;;;;;3.80;94.90;;;;;;5016313;28;19936;-87
2021/04/13 07:06:29;;;;;;;;;;;3.90;94.70;;;;;;5034735;28;19956;-86
2021/04/13 07:09:04;;;;;;;;;;;3.90;94.60;;;;;;5015620;28;20384;-86
2021/04/13 07:11:37;;;;;;;;;;;3.90;94.80;;;;;;5034460;28;20559;-87
2021/04/13 07:14:02;;;;;;;;;;;4.00;95.00;;;;;;5015963;28;19915;-86
2021/04/13 07:16:40;;;;;;;;;;;4.00;94.80;;;;;;5033978;28;20011;-86
2021/04/13 07:19:26;;;;;;;;;;;4.10;94.70;;;;;;5016198;28;19913;-86
2021/04/13 07:22:04;;;;;;;;;;;4.10;94.70;;;;;;5016407;28;19963;-87
2021/04/13 07:24:39;;;;;;;;;;;4.30;94.70;;;;;;5017268;28;19913;-86
2021/04/13 07:27:34;;;;;;;;;;;4.30;94.10;;;;;;5018295;28;20255;-88
2021/04/13 07:30:05;;;;;;;;;;;4.40;93.70;;;;;;4999661;28;20004;-86
2021/04/13 07:32:51;;;;;;;;;;;4.40;93.40;;;;;;5016918;28;19916;-87
2021/04/13 07:35:39;;;;;;;;;;;4.40;93.50;;;;;;5031650;28;19909;-87
2021/04/13 07:38:32;;;;;;;;;;;4.50;93.40;;;;;;5034555;28;19913;-86
2021/04/13 07:41:00;;;;;;;;;;;4.50;93.10;;;;;;5011608;28;19909;-86
2021/04/13 07:43:33;;;;;;;;;;;4.60;93.00;;;;;;5033944;28;19909;-87
2021/04/13 07:46:11;;;;;;;;;;;4.60;92.80;;;;;;5034177;28;20377;-85
2021/04/13 07:48:43;;;;;;;;;;;4.60;92.60;;;;;;5015053;28;19973;-85
2021/04/13 07:51:16;;;;;;;;;;;4.70;92.60;;;;;;5035463;28;19909;-86
2021/04/13 07:53:57;;;;;;;;;;;4.70;92.70;;;;;;5036314;28;19909;-85
2021/04/13 07:56:25;;;;;;;;;;;4.70;92.60;;;;;;5035819;28;19967;-86
2021/04/13 07:59:14;;;;;;;;;;;4.80;92.50;;;;;;5018003;28;20316;-86
2021/04/13 08:01:39;;;;;;;;;;;4.80;92.70;;;;;;5035836;28;19909;-85
2021/04/13 08:04:05;;;;;;;;;;;4.80;92.50;;;;;;5018133;28;19909;-86
2021/04/13 08:06:31;;;;;;;;;;;4.90;92.40;;;;;;5035718;28;19956;-85
2021/04/13 08:09:06;;;;;;;;;;;4.90;92.20;;;;;;5017540;28;19944;-86
2021/04/13 08:11:31;;;;;;;;;;;5.00;92.20;;;;;;5017924;28;20000;-85
2021/04/13 08:14:13;;;;;;;;;;;5.10;91.90;;;;;;5035649;28;19999;-86
2021/04/13 08:16:39;;;;;;;;;;;5.20;92.20;;;;;;5017732;28;19913;-86
2021/04/13 08:19:10;;;;;;;;;;;5.20;91.80;;;;;;5034870;28;20169;-85
2021/04/13 08:21:37;;;;;;;;;;;5.20;91.50;;;;;;5035462;28;19909;-86
2021/04/13 08:24:03;;;;;;;;;;;5.30;91.70;;;;;;5017783;28;19916;-86
2021/04/13 08:26:31;;;;;;;;;;;5.30;91.40;;;;;;5035343;28;20352;-86
2021/04/13 08:29:15;;;;;;;;;;;5.40;91.50;;;;;;5019728;28;19909;-87
2021/04/13 08:34:56;;;;;;;;;;;5.40;91.10;;;;;;5035347;28;20274;-87
2021/04/13 08:37:31;;;;;;;;;;;5.40;91.20;;;;;;5017189;28;19920;-86
2021/04/13 08:39:59;;;;;;;;;;;5.40;91.10;;;;;;5034652;28;19992;-86
2021/04/13 08:42:25;;;;;;;;;;;5.30;90.90;;;;;;5017243;28;19916;-87
2021/04/13 08:44:57;;;;;;;;;;;5.30;91.10;;;;;;5035190;28;19909;-86
2021/04/13 08:47:37;;;;;;;;;;;5.30;91.20;;;;;;5017202;28;19916;-87
2021/04/13 08:50:17;;;;;;;;;;;5.30;91.00;;;;;;5016539;28;19913;-87
2021/04/13 08:52:51;;;;;;;;;;;5.30;91.30;;;;;;5017102;28;19913;-87
2021/04/13 08:55:16;;;;;;;;;;;5.40;91.30;;;;;;5016987;28;19917;-87
2021/04/13 08:58:01;;;;;;;;;;;5.50;91.10;;;;;;5034665;28;19920;-87
2021/04/13 09:00:35;;;;;;;;;;;5.60;90.80;;;;;;5033916;28;19917;-87
2021/04/13 09:03:02;;;;;;;;;;;5.60;90.70;;;;;;5016675;28;20354;-87
2021/04/13 09:05:29;;;;;;;;;;;5.70;90.10;;;;;;5034574;28;20000;-87
2021/04/13 09:08:01;;;;;;;;;;;5.70;89.40;;;;;;5016826;28;19909;-87
2021/04/13 09:10:33;;;;;;;;;;;5.80;88.80;;;;;;5033992;28;19952;-87
2021/04/13 09:13:04;;;;;;;;;;;5.80;88.50;;;;;;5016665;28;20012;-87
2021/04/13 09:15:31;;;;;;;;;;;5.80;88.70;;;;;;5034340;28;19913;-86
2021/04/13 09:17:59;;;;;;;;;;;5.90;87.70;;;;;;5016721;28;19913;-87
2021/04/13 09:20:40;;;;;;;;;;;5.90;87.70;;;;;;5016069;28;19924;-87
2021/04/13 09:23:06;;;;;;;;;;;5.90;86.10;;;;;;5034500;28;19917;-86
2021/04/13 09:25:34;;;;;;;;;;;6.00;86.90;;;;;;5016540;28;19909;-87
2021/04/13 09:28:19;;;;;;;;;;;6.00;84.70;;;;;;5016864;28;20385;-87
2021/04/13 09:30:49;;;;;;;;;;;6.00;86.30;;;;;;5033447;28;19909;-86
2021/04/13 09:33:20;;;;;;;;;;;6.10;87.20;;;;;;5016313;28;20355;-87
2021/04/13 09:35:46;;;;;;;;;;;6.10;86.30;;;;;;5034336;28;19909;-87
2021/04/13 09:38:30;;;;;;;;;;;6.20;85.70;;;;;;5033949;28;19920;-87
2021/04/13 09:41:13;;;;;;;;;;;6.30;86.50;;;;;;5016017;28;19909;-87
2021/04/13 09:43:57;;;;;;;;;;;6.30;85.50;;;;;;5016204;28;19910;-87
2021/04/13 09:46:35;;;;;;;;;;;6.30;83.00;;;;;;5016046;28;19909;-87
2021/04/13 09:49:01;;;;;;;;;;;6.20;82.90;;;;;;5033211;28;19909;-87
2021/04/13 09:51:45;;;;;;;;;;;6.10;81.10;;;;;;5016098;28;20059;-86
2021/04/13 09:54:42;;;;;;;;;;;6.10;82.60;;;;;;5033580;28;19916;-86
2021/04/13 09:57:23;;;;;;;;;;;6.10;83.00;;;;;;5032266;28;19921;-87
2021/04/13 10:00:09;;;;;;;;;;;6.20;81.60;;;;;;5015343;28;19932;-87
2021/04/13 10:03:00;;;;;;;;;;;6.30;80.90;;;;;;5031497;28;19959;-87
2021/04/13 10:06:17;;;;;;;;;;;6.30;81.60;;;;;;5011349;28;19910;-87
2021/04/13 10:09:10;;;;;;;;;;;6.40;80.70;;;;;;4987805;28;19952;-87
2021/04/13 10:11:40;;;;;;;;;;;6.60;76.60;;;;;;4991671;28;19917;-87
2021/04/13 10:14:07;;;;;;;;;;;6.60;76.70;;;;;;4993937;28;19920;-87
2021/04/13 10:16:57;;;;;;;;;;;6.70;78.80;;;;;;5020289;28;19920;-87
2021/04/13 10:19:43;;;;;;;;;;;6.80;74.70;;;;;;5029959;28;20501;-87
2021/04/13 10:22:51;;;;;;;;;;;6.90;75.30;;;;;;5015510;28;19916;-87
2021/04/13 10:26:03;;;;;;;;;;;7.00;76.30;;;;;;5030709;28;19910;-87
2021/04/13 10:28:33;;;;;;;;;;;7.10;76.40;;;;;;5032500;28;19913;-87
2021/04/13 10:31:10;;;;;;;;;;;7.10;75.70;;;;;;5016171;28;19999;-87
2021/04/13 10:33:55;;;;;;;;;;;7.10;70.70;;;;;;5016208;28;20004;-87
2021/04/13 10:36:23;;;;;;;;;;;7.00;69.60;;;;;;5033807;28;20380;-87
2021/04/13 10:39:04;;;;;;;;;;;7.10;68.70;;;;;;5032589;28;20007;-87
2021/04/13 10:41:33;;;;;;;;;;;7.10;62.90;;;;;;5026452;28;19956;-87
2021/04/13 10:44:04;;;;;;;;;;;7.10;63.40;;;;;;5015001;28;20449;-87
2021/04/13 10:46:41;;;;;;;;;;;7.20;67.80;;;;;;5032859;28;19959;-86
2021/04/13 10:49:33;;;;;;;;;;;7.30;69.10;;;;;;5032375;28;19917;-87
2021/04/13 10:52:01;;;;;;;;;;;7.30;67.70;;;;;;5032883;28;20282;-86
2021/04/13 10:54:48;;;;;;;;;;;7.30;58.80;;;;;;5014840;28;19913;-87
2021/04/13 10:57:14;;;;;;;;;;;7.30;56.30;;;;;;5015085;28;19940;-87
2021/04/13 10:59:46;;;;;;;;;;;7.30;60.10;;;;;;5032437;28;20484;-87
2021/04/13 11:02:30;;;;;;;;;;;7.40;60.60;;;;;;5032581;28;20416;-87
2021/04/13 11:04:59;;;;;;;;;;;7.40;61.50;;;;;;5014928;28;19999;-87
2021/04/13 11:07:51;;;;;;;;;;;7.40;62.60;;;;;;5014896;28;20016;-87
2021/04/13 11:10:40;;;;;;;;;;;7.40;66.10;;;;;;5002740;28;19913;-87
2021/04/13 11:13:18;;;;;;;;;;;7.60;66.60;;;;;;5015114;28;20513;-87
2021/04/13 11:16:16;;;;;;;;;;;7.60;67.60;;;;;;5014977;28;19948;-86
2021/04/13 11:19:02;;;;;;;;;;;7.50;67.10;;;;;;5014275;28;20059;-87
2021/04/13 11:22:00;;;;;;;;;;;7.60;67.10;;;;;;5032332;28;19916;-87
2021/04/13 11:24:37;;;;;;;;;;;7.60;64.50;;;;;;4972990;28;19941;-87
2021/04/13 11:27:05;;;;;;;;;;;7.60;63.50;;;;;;5018712;28;19924;-86
2021/04/13 11:29:49;;;;;;;;;;;7.50;63.30;;;;;;5035816;28;19963;-87
2021/04/13 11:32:30;;;;;;;;;;;7.60;64.30;;;;;;5018493;28;20476;-87
2021/04/13 11:35:10;;;;;;;;;;;7.70;59.80;;;;;;5036267;28;19909;-87
2021/04/13 11:37:36;;;;;;;;;;;7.90;61.50;;;;;;5018346;28;20389;-87
2021/04/13 11:40:10;;;;;;;;;;;7.90;61.80;;;;;;5035716;28;19909;-86
2021/04/13 11:42:39;;;;;;;;;;;8.00;61.60;;;;;;5036201;28;19909;-87
2021/04/13 11:45:14;;;;;;;;;;;8.00;62.80;;;;;;5018316;28;19909;-87
2021/04/13 11:47:55;;;;;;;;;;;8.00;63.10;;;;;;5036492;28;19927;-86
2021/04/13 11:50:28;;;;;;;;;;;7.80;62.60;;;;;;5017702;28;19956;-85
2021/04/13 11:53:02;;;;;;;;;;;7.70;63.30;;;;;;5018273;28;19955;-86
2021/04/13 11:55:27;;;;;;;;;;;7.60;64.10;;;;;;5018229;28;20362;-86
2021/04/13 11:58:15;;;;;;;;;;;7.70;60.00;;;;;;5018103;28;19928;-87
2021/04/13 12:00:42;;;;;;;;;;;7.60;61.20;;;;;;5035441;28;19909;-86
2021/04/13 12:03:17;;;;;;;;;;;7.60;60.50;;;;;;5018075;28;19913;-87
2021/04/13 12:05:45;;;;;;;;;;;7.80;60.40;;;;;;5018002;28;19959;-87
2021/04/13 12:08:29;;;;;;;;;;;7.70;60.10;;;;;;5035760;28;20001;-87
2021/04/13 12:11:02;;;;;;;;;;;7.90;58.30;;;;;;5017383;28;19910;-86
2021/04/13 12:13:41;;;;;;;;;;;7.90;58.90;;;;;;5017673;28;19909;-87
2021/04/13 12:16:09;;;;;;;;;;;7.90;58.40;;;;;;5035495;28;19959;-87
2021/04/13 12:19:13;;;;;;;;;;;7.80;58.70;;;;;;5035543;28;19909;-86
2021/04/13 12:21:59;;;;;;;;;;;7.90;58.30;;;;;;5034099;28;19909;-87
2021/04/13 12:24:37;;;;;;;;;;;8.00;55.50;;;;;;5017735;28;19932;-87
2021/04/13 12:27:21;;;;;;;;;;;8.00;56.70;;;;;;5017600;28;20005;-87
2021/04/13 12:29:47;;;;;;;;;;;8.10;55.60;;;;;;5017008;28;19959;-86
2021/04/13 12:32:12;;;;;;;;;;;8.30;52.00;;;;;;5017546;28;19910;-86
2021/04/13 12:34:50;;;;;;;;;;;8.30;54.30;;;;;;5017465;28;20354;-87
2021/04/13 12:37:34;;;;;;;;;;;8.20;55.50;;;;;;5016221;28;19975;-86
2021/04/13 12:40:00;;;;;;;;;;;8.30;58.60;;;;;;5034923;28;20012;-87
2021/04/13 12:42:28;;;;;;;;;;;8.30;56.50;;;;;;5017741;28;19909;-86
2021/04/13 12:45:12;;;;;;;;;;;8.30;56.60;;;;;;5035081;28;19913;-87
2021/04/13 12:47:37;;;;;;;;;;;8.20;58.90;;;;;;5017399;28;19910;-87
2021/04/13 12:50:11;;;;;;;;;;;8.10;60.00;;;;;;5016759;28;19916;-87
2021/04/13 12:52:37;;;;;;;;;;;8.20;57.00;;;;;;5017123;28;19908;-86
2021/04/13 12:55:14;;;;;;;;;;;8.30;54.90;;;;;;5016939;28;19917;-86
2021/04/13 12:57:49;;;;;;;;;;;8.30;53.90;;;;;;5034789;28;20263;-86
2021/04/13 13:00:15;;;;;;;;;;;8.50;53.00;;;;;;5016435;28;19959;-87
2021/04/13 13:02:47;;;;;;;;;;;8.40;51.00;;;;;;5034726;28;19909;-86
2021/04/13 13:05:30;;;;;;;;;;;8.40;51.50;;;;;;5016934;28;19909;-87
2021/04/13 13:07:57;;;;;;;;;;;8.40;52.80;;;;;;5034736;28;19909;-86
2021/04/13 13:10:34;;;;;;;;;;;8.50;54.20;;;;;;5035585;28;20529;-85
2021/04/13 13:13:03;;;;;;;;;;;8.50;53.60;;;;;;5017904;28;19913;-86
2021/04/13 13:15:33;;;;;;;;;;;8.40;54.60;;;;;;5018137;28;19909;-86
2021/04/13 13:18:15;;;;;;;;;;;8.40;52.90;;;;;;5017602;28;19913;-86
2021/04/13 13:20:41;;;;;;;;;;;8.40;50.60;;;;;;5017851;28;20008;-86
2021/04/13 13:23:11;;;;;;;;;;;8.60;49.50;;;;;;5017709;28;19956;-86
2021/04/13 13:25:36;;;;;;;;;;;8.60;48.10;;;;;;5017576;28;19951;-86
2021/04/13 13:28:04;;;;;;;;;;;8.60;48.00;;;;;;5017601;28;20362;-85
2021/04/13 13:30:33;;;;;;;;;;;8.50;48.30;;;;;;5017672;28;20439;-85
2021/04/13 13:32:59;;;;;;;;;;;8.50;49.50;;;;;;5017841;28;19909;-86
2021/04/13 13:35:27;;;;;;;;;;;8.40;47.10;;;;;;5017428;28;19909;-86
2021/04/13 13:37:55;;;;;;;;;;;8.30;48.00;;;;;;5017281;28;19957;-86
2021/04/13 13:40:32;;;;;;;;;;;8.30;47.60;;;;;;5017442;28;19910;-86
2021/04/13 13:42:58;;;;;;;;;;;8.30;48.60;;;;;;5017441;28;19909;-86
2021/04/13 13:45:30;;;;;;;;;;;8.20;46.20;;;;;;5018238;28;20000;-86
2021/04/13 13:47:55;;;;;;;;;;;8.30;47.80;;;;;;5034262;28;19909;-86
2021/04/13 13:50:25;;;;;;;;;;;8.40;47.50;;;;;;5015734;28;20366;-86
2021/04/13 13:52:51;;;;;;;;;;;8.50;46.30;;;;;;5033773;28;19932;-87
2021/04/13 13:55:17;;;;;;;;;;;8.40;47.80;;;;;;5033904;28;19917;-87
2021/04/13 13:58:02;;;;;;;;;;;8.50;48.50;;;;;;5015967;28;19936;-87
2021/04/13 14:00:40;;;;;;;;;;;8.40;49.20;;;;;;5001823;28;19913;-87
2021/04/13 14:03:11;;;;;;;;;;;8.40;49.30;;;;;;5016001;28;19940;-87
2021/04/13 14:05:37;;;;;;;;;;;8.40;50.40;;;;;;5015806;28;20061;-87
2021/04/13 14:08:19;;;;;;;;;;;8.40;49.80;;;;;;5033434;28;19909;-87
2021/04/13 14:10:45;;;;;;;;;;;8.40;49.90;;;;;;5033127;28;19956;-87
2021/04/13 14:13:20;;;;;;;;;;;8.30;49.80;;;;;;5015632;28;20379;-87
2021/04/13 14:15:49;;;;;;;;;;;8.30;45.50;;;;;;5015808;28;19909;-87
2021/04/13 14:18:44;;;;;;;;;;;8.30;41.40;;;;;;5033294;28;20325;-87
2021/04/13 14:21:11;;;;;;;;;;;8.30;41.00;;;;;;4997764;28;20386;-87
2021/04/13 14:23:39;;;;;;;;;;;8.30;41.70;;;;;;5015259;28;19909;-86
2021/04/13 14:26:11;;;;;;;;;;;8.30;42.60;;;;;;5015096;28;20485;-87
2021/04/13 14:28:36;;;;;;;;;;;8.40;44.70;;;;;;5032995;28;20367;-86
2021/04/13 14:31:12;;;;;;;;;;;8.50;47.50;;;;;;5015160;28;19995;-87
2021/04/13 14:33:37;;;;;;;;;;;8.50;48.30;;;;;;5033243;28;19955;-86
2021/04/13 14:36:03;;;;;;;;;;;8.50;49.10;;;;;;5033408;28;19917;-86
2021/04/13 14:38:29;;;;;;;;;;;8.50;48.90;;;;;;5033985;28;19971;-87
2021/04/13 14:40:54;;;;;;;;;;;8.40;49.60;;;;;;5016164;28;20340;-86
2021/04/13 14:43:20;;;;;;;;;;;8.50;50.30;;;;;;5034498;28;20432;-87
2021/04/13 14:45:45;;;;;;;;;;;8.50;51.10;;;;;;5034368;28;19913;-87
2021/04/13 14:48:15;;;;;;;;;;;8.50;51.60;;;;;;5016281;28;19920;-86
2021/04/13 14:50:42;;;;;;;;;;;8.40;52.00;;;;;;5015884;28;19909;-87
2021/04/13 14:53:08;;;;;;;;;;;8.40;51.40;;;;;;5032742;28;19913;-87
2021/04/13 14:55:33;;;;;;;;;;;8.40;49.80;;;;;;5032625;28;19917;-86
2021/04/13 14:58:00;;;;;;;;;;;8.40;50.30;;;;;;5014958;28;20049;-87
2021/04/13 15:00:27;;;;;;;;;;;8.40;51.30;;;;;;5013791;28;19953;-86
2021/04/13 15:02:52;;;;;;;;;;;8.40;51.40;;;;;;5014934;28;19909;-86
2021/04/13 15:05:18;;;;;;;;;;;8.80;51.80;;;;;;5015579;28;19915;-87
2021/04/13 15:07:44;;;;;;;;;;;9.30;50.10;;;;;;5032715;28;19909;-87
2021/04/13 15:10:13;;;;;;;;;;;9.60;48.90;;;;;;5031993;28;19935;-87
2021/04/13 15:12:38;;;;;;;;;;;9.90;46.90;;;;;;5033191;28;19909;-87
2021/04/13 15:15:05;;;;;;;;;;;10.10;46.70;;;;;;5014657;28;19910;-85